Time;durP1;ratioP1;P1;durP2;ratioP2;P2;SDS_P1;SDS_P2;PMS_P1;PMS_P2;Temp;Humidity;BMP_temperature;BMP_pressure;BME280_temperature;BME280_humidity;BME280_pressure;Samples;Min_cycle;Max_cycle;Signal;HPM_P1;HPM_P2
2023/10/06 00:02:20;;;;;;;9.50;6.43;;;17.40;95.60;;;17.74;59.67;95580.94;5002794;28;20478;-60
2023/10/06 00:04:47;;;;;;;9.80;6.40;;;17.40;95.60;;;17.73;59.56;95589.91;5006959;28;20473;-61
2023/10/06 00:07:15;;;;;;;6.80;6.10;;;17.40;95.70;;;17.70;59.58;95596.38;5002493;28;20520;-61
2023/10/06 00:09:44;;;;;;;12.00;6.43;;;17.30;95.50;;;17.68;59.49;95589.56;5000820;28;20459;-60
2023/10/06 00:12:13;;;;;;;11.60;6.70;;;17.30;95.70;;;17.67;59.94;95590.56;5002299;28;21049;-60
2023/10/06 00:14:43;;;;;;;11.83;7.17;;;17.30;95.80;;;17.65;60.04;95588.06;5005663;28;20630;-61
2023/10/06 00:17:16;;;;;;;11.50;7.20;;;17.30;95.80;;;17.65;60.02;95582.75;5002864;28;20482;-61
2023/10/06 00:19:44;;;;;;;8.47;6.47;;;17.30;95.90;;;17.65;60.21;95576.59;5003748;28;20461;-61
2023/10/06 00:22:17;;;;;;;7.83;6.10;;;17.30;96.10;;;17.65;59.49;95587.25;5001594;28;20703;-60
2023/10/06 00:24:47;;;;;;;9.03;6.40;;;17.30;96.00;;;17.63;60.07;95583.91;5002313;28;20446;-61
2023/10/06 00:27:20;;;;;;;11.60;6.70;;;17.20;96.10;;;17.61;60.20;95580.59;4999066;28;21022;-61
2023/10/06 00:29:49;;;;;;;11.67;7.17;;;17.20;96.10;;;17.59;60.21;95577.28;5001643;28;20461;-61
2023/10/06 00:32:26;;;;;;;10.47;7.07;;;17.20;96.10;;;17.57;60.47;95577.44;5001799;28;20548;-60
2023/10/06 00:34:55;;;;;;;11.70;6.43;;;17.20;96.20;;;17.54;60.41;95577.75;5002674;28;20484;-61
2023/10/06 00:37:23;;;;;;;16.07;7.33;;;17.20;96.50;;;17.51;60.19;95580.75;4999405;28;20540;-60
2023/10/06 00:39:52;;;;;;;11.97;7.03;;;17.10;96.40;;;17.48;60.32;95581.91;5003633;28;20525;-61
2023/10/06 00:42:26;;;;;;;9.37;6.80;;;17.10;96.40;;;17.45;60.76;95590.22;5005088;28;20663;-60
2023/10/06 00:44:54;;;;;;;9.00;6.50;;;17.10;96.60;;;17.45;60.58;95590.22;5002941;28;20445;-61
2023/10/06 00:47:22;;;;;;;8.77;6.73;;;17.10;96.80;;;17.44;60.36;95591.19;5001948;28;20533;-61
2023/10/06 00:49:51;;;;;;;13.53;6.70;;;17.10;96.80;;;17.43;60.79;95599.34;5000624;28;20609;-61
2023/10/06 00:52:18;;;;;;;12.00;6.67;;;17.00;96.80;;;17.41;60.83;95599.50;4999984;28;20470;-60
2023/10/06 00:54:46;;;;;;;13.90;8.20;;;17.00;97.00;;;17.39;60.52;95594.34;5005293;28;20467;-61
2023/10/06 00:57:18;;;;;;;16.20;7.13;;;17.00;96.90;;;17.38;60.46;95602.50;5000560;28;21101;-59
2023/10/06 00:59:47;;;;;;;12.73;6.17;;;17.00;97.00;;;17.38;61.20;95598.03;4996598;28;20477;-61
2023/10/06 01:02:16;;;;;;;10.10;6.20;;;17.00;97.20;;;17.36;60.61;95589.38;5001655;28;20466;-61
2023/10/06 01:04:45;;;;;;;11.67;6.90;;;17.00;97.20;;;17.34;60.99;95571.94;5001417;28;20549;-61
2023/10/06 01:07:14;;;;;;;12.77;7.07;;;17.00;97.20;;;17.32;60.78;95581.88;5000270;28;20521;-63
2023/10/06 01:09:56;;;;;;;11.63;6.37;;;17.00;97.10;;;17.30;61.06;95586.53;5006106;28;20460;-61
2023/10/06 01:12:26;;;;;;;11.63;7.17;;;16.90;97.20;;;17.26;61.39;95574.56;4999579;28;20482;-60
2023/10/06 01:15:16;;;;;;;12.50;6.60;;;16.90;97.30;;;17.22;60.56;95581.22;5001827;28;20504;-61
2023/10/06 01:17:43;;;;;;;12.27;7.00;;;16.90;96.90;;;17.16;61.26;95583.50;4997951;28;20450;-61
2023/10/06 01:20:17;;;;;;;12.07;6.37;;;16.80;97.20;;;17.15;61.08;95595.16;5001723;28;20456;-60
2023/10/06 01:22:52;;;;;;;9.33;6.67;;;16.80;97.40;;;17.14;61.18;95590.00;4998790;28;20458;-61
2023/10/06 01:25:20;;;;;;;10.87;6.13;;;16.80;97.40;;;17.16;61.16;95591.47;5004480;28;20475;-60
2023/10/06 01:27:50;;;;;;;12.00;6.80;;;16.80;97.70;;;17.17;61.75;95595.81;4999719;28;21080;-60
2023/10/06 01:30:20;;;;;;;9.50;6.37;;;16.80;97.80;;;17.20;61.50;95592.00;5002170;28;20450;-60
2023/10/06 01:32:50;;;;;;;10.23;6.50;;;16.80;97.80;;;17.23;61.41;95596.16;5007900;28;20454;-60
2023/10/06 01:35:23;;;;;;;10.53;6.33;;;16.80;97.80;;;17.25;61.49;95599.50;5003509;28;20565;-60
2023/10/06 01:37:51;;;;;;;11.00;6.10;;;16.90;97.70;;;17.26;61.23;95599.34;4997800;28;20449;-62
2023/10/06 01:40:36;;;;;;;14.77;6.87;;;16.90;97.50;;;17.29;60.70;95603.47;5000753;28;20454;-60
2023/10/06 01:43:09;;;;;;;7.63;5.80;;;16.90;97.40;;;17.31;60.87;95604.97;5001603;28;20460;-60
2023/10/06 01:45:43;;;;;;;14.00;7.10;;;16.90;97.40;;;17.34;60.90;95601.19;5007557;28;20532;-61
2023/10/06 01:48:22;;;;;;;16.73;6.97;;;17.00;97.40;;;17.35;60.53;95608.13;5004880;28;20489;-62
2023/10/06 01:50:50;;;;;;;9.47;5.80;;;17.00;97.20;;;17.37;60.98;95616.81;5004867;28;20473;-60
2023/10/06 01:53:19;;;;;;;14.10;5.73;;;17.00;97.20;;;17.37;60.69;95608.81;4996621;28;20979;-58
2023/10/06 01:55:49;;;;;;;17.90;6.63;;;17.00;97.20;;;17.37;60.79;95606.16;4999532;28;20557;-61
2023/10/06 01:58:16;;;;;;;9.47;6.30;;;17.00;97.10;;;17.36;60.73;95607.97;4998243;28;20467;-65
2023/10/06 02:00:45;;;;;;;13.40;6.60;;;17.00;97.20;;;17.34;60.91;95603.84;5000965;28;20475;-60
2023/10/06 02:03:16;;;;;;;11.93;6.73;;;17.00;97.10;;;17.33;60.91;95607.47;4998126;28;20465;-60
2023/10/06 02:05:44;;;;;;;14.70;6.17;;;17.00;97.20;;;17.32;60.35;95604.00;4999620;28;20488;-60
2023/10/06 02:08:14;;;;;;;13.07;6.90;;;17.00;97.10;;;17.31;60.46;95609.47;5000130;28;20490;-60
2023/10/06 02:10:47;;;;;;;7.30;6.27;;;17.00;97.10;;;17.30;60.89;95607.81;5003722;28;20484;-61
2023/10/06 02:13:19;;;;;;;8.27;6.13;;;16.90;97.00;;;17.29;60.94;95614.97;5004127;28;20443;-61
2023/10/06 02:15:47;;;;;;;10.73;5.63;;;16.90;97.10;;;17.27;60.48;95616.94;5002677;28;20641;-61
2023/10/06 02:18:14;;;;;;;15.90;6.97;;;16.90;97.10;;;17.27;60.62;95616.94;5003630;28;20579;-60
2023/10/06 02:20:45;;;;;;;9.03;6.30;;;16.90;97.20;;;17.24;60.81;95613.78;5002236;28;20477;-61
2023/10/06 02:23:14;;;;;;;8.23;6.50;;;16.90;97.20;;;17.22;60.65;95618.44;5003257;28;20443;-60
2023/10/06 02:25:43;;;;;;;11.97;7.70;;;16.90;97.20;;;17.19;60.87;95614.25;5001654;28;20505;-60
2023/10/06 02:28:10;;;;;;;14.37;6.60;;;16.90;97.30;;;17.18;61.23;95615.25;5002861;28;20548;-62
2023/10/06 02:30:39;;;;;;;10.93;5.23;;;16.80;97.40;;;17.16;60.91;95619.91;5001892;28;20482;-60
2023/10/06 02:33:07;;;;;;;9.90;6.63;;;16.80;97.40;;;17.14;61.22;95628.03;5002613;28;20466;-60
2023/10/06 02:35:35;;;;;;;8.40;6.40;;;16.80;97.40;;;17.13;60.93;95631.69;5001388;28;20481;-60
2023/10/06 02:38:06;;;;;;;10.43;6.40;;;16.80;97.40;;;17.13;61.16;95633.53;5002755;28;20477;-59
2023/10/06 02:40:44;;;;;;;10.70;7.03;;;16.80;97.50;;;17.10;60.73;95629.38;5001827;28;20454;-59
2023/10/06 02:43:16;;;;;;;8.50;6.40;;;16.80;97.40;;;17.07;61.02;95637.69;5004529;28;20452;-59
2023/10/06 02:45:43;;;;;;;11.20;6.87;;;16.70;97.40;;;17.02;61.51;95639.97;5001474;28;20471;-60
2023/10/06 02:48:18;;;;;;;10.33;6.77;;;16.70;97.60;;;16.97;61.38;95645.75;5003998;28;20532;-59
2023/10/06 02:50:50;;;;;;;22.23;7.33;;;16.70;97.70;;;16.93;61.44;95635.59;5001778;28;20473;-61
2023/10/06 02:53:20;;;;;;;20.57;7.60;;;16.60;97.70;;;16.90;61.87;95639.44;5002845;28;20453;-60
2023/10/06 02:55:55;;;;;;;10.33;6.07;;;16.60;98.00;;;16.87;61.65;95634.44;5002154;28;20561;-62
2023/10/06 02:58:27;;;;;;;16.87;7.10;;;16.50;97.60;;;16.84;61.59;95629.41;5001052;28;20450;-61
2023/10/06 03:00:55;;;;;;;6.30;5.70;;;16.50;97.90;;;16.82;61.96;95634.88;5003950;28;20480;-61
2023/10/06 03:03:27;;;;;;;13.60;6.87;;;16.50;98.10;;;16.84;61.97;95632.91;5000744;28;20462;-61
2023/10/06 03:05:55;;;;;;;10.13;6.30;;;16.50;98.20;;;16.88;62.29;95628.13;5004118;28;20560;-60
2023/10/06 03:08:26;;;;;;;17.90;6.83;;;16.50;98.40;;;16.93;62.18;95630.28;5000067;28;20494;-61
2023/10/06 03:10:53;;;;;;;11.63;6.00;;;16.60;98.40;;;16.95;62.07;95636.31;5003638;28;20578;-59
2023/10/06 03:13:32;;;;;;;16.07;7.50;;;16.60;98.50;;;16.97;61.91;95631.66;5005052;28;20453;-59
2023/10/06 03:15:59;;;;;;;16.33;8.03;;;16.60;98.30;;;17.00;62.42;95636.66;5005607;28;20474;-58
2023/10/06 03:18:27;;;;;;;9.97;6.70;;;16.60;98.40;;;17.01;61.97;95633.81;5003768;28;20985;-59
2023/10/06 03:21:04;;;;;;;9.83;6.67;;;16.60;98.10;;;17.01;61.83;95638.31;5004076;28;20478;-59
2023/10/06 03:23:37;;;;;;;9.13;6.17;;;16.60;98.30;;;17.02;61.91;95632.84;5001507;28;20823;-59
2023/10/06 03:26:12;;;;;;;15.17;7.30;;;16.70;98.40;;;17.04;61.96;95632.69;4999236;28;20513;-60
2023/10/06 03:28:43;;;;;;;12.30;7.03;;;16.70;98.40;;;17.08;62.05;95635.84;5004302;28;20556;-61
2023/10/06 03:31:22;;;;;;;16.67;6.67;;;16.70;98.40;;;17.09;61.85;95624.22;5000162;28;20494;-59
2023/10/06 03:33:49;;;;;;;12.80;8.30;;;16.70;98.40;;;17.09;61.78;95635.69;5002347;28;20533;-60
2023/10/06 03:36:21;;;;;;;23.83;8.50;;;16.70;98.40;;;17.11;62.03;95632.84;5003973;28;20474;-61
2023/10/06 03:38:55;;;;;;;11.83;7.47;;;16.70;98.50;;;17.12;62.20;95639.84;5002895;28;20454;-60
2023/10/06 03:41:26;;;;;;;13.00;8.23;;;16.70;98.40;;;17.11;62.18;95633.69;5002693;28;20567;-59
2023/10/06 03:43:55;;;;;;;20.83;7.33;;;16.70;98.40;;;17.12;61.73;95632.69;5001923;28;20931;-59
2023/10/06 03:46:24;;;;;;;10.57;6.33;;;16.80;98.30;;;17.13;61.83;95631.69;4998864;28;20482;-60
2023/10/06 03:48:51;;;;;;;10.10;7.13;;;16.80;98.20;;;17.15;61.58;95628.88;5002764;28;20489;-60
2023/10/06 03:51:18;;;;;;;6.77;5.20;;;16.80;98.20;;;17.14;61.92;95622.72;4999108;28;20861;-58
2023/10/06 03:53:48;;;;;;;20.60;5.93;;;16.80;98.00;;;17.14;61.37;95628.03;5000898;28;20470;-59
2023/10/06 03:56:17;;;;;;;9.97;6.23;;;16.80;97.90;;;17.15;61.79;95631.53;5002275;28;20491;-60
2023/10/06 03:58:45;;;;;;;8.83;6.40;;;16.80;98.00;;;17.15;61.23;95631.53;4998525;28;20493;-61
2023/10/06 04:01:19;;;;;;;10.13;5.80;;;16.80;97.80;;;17.15;61.07;95628.88;5008555;28;20917;-60
2023/10/06 04:03:47;;;;;;;6.03;4.60;;;16.80;97.80;;;17.15;61.51;95634.19;5005321;28;20529;-61
2023/10/06 04:06:15;;;;;;;8.03;5.23;;;16.80;97.80;;;17.14;61.63;95630.69;5001454;28;20552;-60
2023/10/06 04:08:45;;;;;;;9.10;5.27;;;16.80;97.80;;;17.15;61.19;95634.19;5002862;28;20571;-59
2023/10/06 04:11:15;;;;;;;10.67;5.70;;;16.80;97.80;;;17.14;61.34;95629.88;5002168;28;20485;-61
2023/10/06 04:13:42;;;;;;;11.77;5.10;;;16.80;97.80;;;17.12;61.18;95638.00;5001623;28;20873;-61
2023/10/06 04:16:09;;;;;;;6.50;4.90;;;16.80;97.80;;;17.11;61.55;95639.00;4995330;28;20582;-59
2023/10/06 04:18:38;;;;;;;9.90;6.37;;;16.70;97.70;;;17.08;61.50;95641.97;5002896;28;20449;-61
2023/10/06 04:21:11;;;;;;;20.03;5.73;;;16.80;97.80;;;17.06;61.19;95641.31;5002867;28;20977;-63
2023/10/06 04:23:41;;;;;;;8.83;5.40;;;16.70;97.70;;;17.02;61.23;95645.28;5002707;28;20806;-59
2023/10/06 04:26:09;;;;;;;9.27;6.03;;;16.70;97.70;;;17.01;62.37;95644.44;5002209;28;20474;-59
2023/10/06 04:28:36;;;;;;;13.97;5.77;;;16.70;98.60;;;17.07;61.70;95645.66;5001790;28;20675;-61
2023/10/06 04:31:05;;;;;;;9.70;6.30;;;16.70;98.20;;;17.12;61.77;95656.63;4995420;28;21083;-61
2023/10/06 04:33:33;;;;;;;10.40;6.20;;;16.70;98.20;;;17.16;61.67;95651.81;5000546;28;20540;-61
2023/10/06 04:36:07;;;;;;;11.53;5.37;;;16.80;98.20;;;17.22;61.28;95655.66;5001240;28;20504;-60
2023/10/06 04:38:37;;;;;;;12.83;6.30;;;16.80;97.80;;;17.27;61.40;95642.69;4999814;28;20527;-64
2023/10/06 04:41:08;;;;;;;13.43;5.93;;;16.90;98.20;;;17.29;61.35;95646.00;4999695;28;20477;-60
2023/10/06 04:43:35;;;;;;;12.50;5.90;;;16.90;97.80;;;17.31;61.27;95652.84;4999852;28;20891;-61
2023/10/06 04:46:05;;;;;;;15.73;6.00;;;16.90;97.80;;;17.32;60.62;95664.31;5002427;28;20478;-61
2023/10/06 04:48:35;;;;;;;8.33;5.90;;;16.90;97.80;;;17.31;60.81;95658.16;4998928;28;20588;-61
2023/10/06 04:51:04;;;;;;;18.77;6.33;;;16.90;97.60;;;17.29;61.28;95661.97;5000143;28;20481;-60
2023/10/06 04:53:35;;;;;;;9.43;6.20;;;16.90;97.80;;;17.26;61.13;95662.28;5003082;28;20446;-61
2023/10/06 04:56:03;;;;;;;22.27;5.63;;;16.90;97.60;;;17.20;60.73;95666.44;5001849;28;20469;-61
2023/10/06 04:58:31;;;;;;;15.80;6.70;;;16.80;97.60;;;17.17;60.87;95674.75;5001906;28;20450;-57
2023/10/06 05:01:00;;;;;;;17.37;6.83;;;16.80;97.70;;;17.16;61.28;95679.22;4998876;28;20478;-57
2023/10/06 05:03:27;;;;;;;7.70;6.30;;;16.80;97.80;;;17.15;61.27;95677.56;5000110;28;20545;-57
2023/10/06 05:05:56;;;;;;;15.20;6.37;;;16.80;97.80;;;17.17;61.25;95677.41;5001743;28;20604;-58
2023/10/06 05:08:25;;;;;;;26.43;6.57;;;16.80;97.80;;;17.20;60.93;95688.53;5000518;28;20580;-59
2023/10/06 05:10:55;;;;;;;17.23;6.30;;;16.80;97.80;;;17.22;61.42;95690.22;4994971;28;20477;-59
2023/10/06 05:13:22;;;;;;;20.80;6.03;;;16.80;97.80;;;17.23;61.00;95691.84;4995397;28;20449;-60
2023/10/06 05:15:50;;;;;;;26.23;7.00;;;16.90;97.80;;;17.27;60.81;95693.22;5000514;28;20480;-60
2023/10/06 05:18:17;;;;;;;13.97;5.67;;;16.90;97.80;;;17.30;60.79;95695.56;4998611;28;20458;-57
2023/10/06 05:20:46;;;;;;;14.57;7.00;;;16.90;97.80;;;17.32;61.23;95701.53;4999535;28;20987;-59
2023/10/06 05:23:15;;;;;;;12.60;5.70;;;16.90;97.80;;;17.35;61.16;95698.56;5001979;28;20462;-59
2023/10/06 05:25:45;;;;;;;17.77;5.13;;;17.00;97.90;;;17.39;61.07;95700.72;4984430;28;20489;-58
2023/10/06 05:28:16;;;;;;;9.43;5.70;;;17.00;97.80;;;17.43;61.17;95701.25;4995165;28;20478;-59
2023/10/06 05:30:44;;;;;;;16.10;7.43;;;17.00;97.80;;;17.48;60.68;95698.94;4998964;28;20478;-59
2023/10/06 05:33:14;;;;;;;9.80;5.80;;;17.10;97.70;;;17.51;60.57;95703.94;5002068;28;20792;-59
2023/10/06 05:35:42;;;;;;;7.30;5.83;;;17.10;97.60;;;17.58;60.88;95711.25;4996107;28;20474;-59
2023/10/06 05:38:12;;;;;;;11.63;6.27;;;17.20;97.60;;;17.66;60.21;95709.47;4996452;28;21008;-62
2023/10/06 05:40:41;;;;;;;16.20;5.80;;;17.20;97.50;;;17.74;60.26;95714.78;4997502;28;20474;-57
2023/10/06 05:43:11;;;;;;;14.53;5.93;;;17.40;97.40;;;17.82;60.07;95713.97;5000398;28;20446;-58
2023/10/06 05:45:39;;;;;;;16.70;6.80;;;17.40;97.30;;;17.96;60.36;95717.03;4996143;28;20553;-58
2023/10/06 05:48:10;;;;;;;12.20;6.27;;;17.50;97.30;;;18.05;60.32;95716.03;5003247;28;21048;-59
2023/10/06 05:50:37;;;;;;;16.33;7.03;;;17.60;97.20;;;18.17;60.00;95719.19;4999925;28;21065;-59
2023/10/06 05:53:07;;;;;;;10.73;6.13;;;17.80;97.10;;;18.34;59.80;95720.03;4998499;28;20454;-59
2023/10/06 05:55:37;;;;;;;11.47;6.63;;;17.90;97.00;;;18.51;59.67;95721.66;5000838;28;20531;-59
2023/10/06 05:58:09;;;;;;;12.10;5.90;;;18.10;96.90;;;18.73;59.29;95717.50;5005532;28;20454;-59
2023/10/06 06:00:43;;;;;;;10.00;5.83;;;18.30;96.70;;;18.97;58.63;95724.63;5002485;28;20993;-59
2023/10/06 06:03:11;;;;;;;8.43;5.80;;;18.50;96.50;;;19.22;58.22;95724.53;5003523;28;20456;-60
2023/10/06 06:05:39;;;;;;;12.33;6.37;;;18.70;96.00;;;19.47;57.64;95735.09;5002349;28;20509;-57
2023/10/06 06:08:08;;;;;;;17.87;6.97;;;18.90;95.80;;;19.74;57.23;95733.81;5004927;28;20620;-61
2023/10/06 06:10:36;;;;;;;10.77;5.43;;;19.20;95.50;;;20.04;57.07;95734.81;5001911;28;20556;-59
2023/10/06 06:13:04;;;;;;;20.47;6.23;;;19.50;95.10;;;20.35;56.35;95736.59;4993049;28;20447;-60
2023/10/06 06:15:31;;;;;;;14.13;6.10;;;19.80;94.70;;;20.66;55.93;95741.03;5002869;28;20454;-59
2023/10/06 06:18:00;;;;;;;20.07;5.83;;;20.10;94.30;;;20.97;55.37;95734.72;5000768;28;20879;-58
2023/10/06 06:20:28;;;;;;;21.63;6.30;;;20.40;93.70;;;21.27;54.61;95745.41;5004084;28;20457;-60
2023/10/06 06:22:58;;;;;;;18.70;6.03;;;20.70;93.10;;;21.59;53.69;95741.56;5002693;28;20462;-59
2023/10/06 06:25:26;;;;;;;14.90;6.53;;;21.00;92.60;;;21.93;53.26;95744.63;5000639;28;20445;-58
2023/10/06 06:27:54;;;;;;;11.13;6.30;;;21.30;91.70;;;22.20;52.96;95749.25;5000324;28;20485;-59
2023/10/06 06:30:23;;;;;;;15.47;8.00;;;21.60;91.50;;;22.52;51.59;95755.13;5001275;28;20460;-59
2023/10/06 06:32:52;;;;;;;11.90;5.70;;;21.90;90.60;;;22.82;51.38;95754.13;5002142;28;20849;-60
2023/10/06 06:35:21;;;;;;;14.53;6.30;;;22.20;90.30;;;23.12;50.85;95759.34;5004865;28;20449;-59
2023/10/06 06:37:51;;;;;;;10.77;5.87;;;22.50;89.10;;;23.39;50.66;95760.34;5001115;28;20488;-59
2023/10/06 06:40:20;;;;;;;17.33;5.70;;;22.80;87.50;;;23.65;50.05;95754.25;5002831;28;20528;-59
2023/10/06 06:42:49;;;;;;;19.03;6.47;;;23.00;86.10;;;23.86;49.83;95761.41;4997582;28;20486;-59
2023/10/06 06:45:16;;;;;;;13.47;7.00;;;23.20;85.30;;;24.07;49.52;95765.00;5002761;28;20459;-59
2023/10/06 06:47:44;;;;;;;8.60;6.37;;;23.40;84.60;;;24.29;48.92;95762.97;4999718;28;20478;-60
2023/10/06 06:50:13;;;;;;;15.57;5.97;;;23.60;83.60;;;24.49;48.58;95766.53;5000595;28;21061;-58
2023/10/06 06:52:42;;;;;;;6.60;5.03;;;23.90;82.00;;;24.62;48.24;95760.38;4999228;28;20445;-59
2023/10/06 06:55:13;;;;;;;15.03;6.87;;;24.00;80.90;;;24.80;47.10;95767.00;5000891;28;20544;-59
2023/10/06 06:57:43;;;;;;;17.13;7.20;;;24.10;79.70;;;25.00;46.82;95765.16;5004806;28;20540;-60
2023/10/06 07:00:16;;;;;;;11.00;7.17;;;24.30;77.20;;;25.14;46.85;95770.50;5001024;28;20473;-61
2023/10/06 07:02:45;;;;;;;17.60;6.77;;;24.40;77.90;;;25.24;46.41;95769.03;5017573;28;20451;-60
2023/10/06 07:05:13;;;;;;;18.40;6.33;;;24.60;77.50;;;25.39;46.38;95762.59;5002704;28;20453;-59
2023/10/06 07:07:43;;;;;;;18.77;6.17;;;24.80;77.20;;;25.62;46.39;95774.78;5006569;28;20973;-60
2023/10/06 07:10:13;;;;;;;12.13;5.37;;;25.00;77.20;;;25.89;46.05;95770.13;5001414;28;21048;-61
2023/10/06 07:12:42;;;;;;;20.60;8.20;;;25.20;76.10;;;26.15;45.55;95776.47;4999729;28;20476;-60
2023/10/06 07:15:14;;;;;;;12.60;5.50;;;25.50;74.70;;;26.40;44.91;95771.97;5000002;28;20458;-60
2023/10/06 07:17:45;;;;;;;18.17;5.90;;;25.80;74.20;;;26.65;44.50;95768.47;5003454;28;20445;-58
2023/10/06 07:20:16;;;;;;;11.47;5.93;;;26.10;72.80;;;26.82;44.01;95766.91;5002590;28;20544;-62
2023/10/06 07:22:46;;;;;;;11.37;6.00;;;26.30;71.60;;;26.98;43.45;95757.44;5003793;28;20517;-63
2023/10/06 07:25:15;;;;;;;15.07;6.23;;;26.50;70.60;;;27.23;43.54;95764.69;5001204;28;20493;-61
2023/10/06 07:27:44;;;;;;;13.13;6.03;;;26.70;70.00;;;27.44;42.81;95763.47;5003240;28;20471;-62
2023/10/06 07:30:14;;;;;;;22.10;6.57;;;26.90;67.50;;;27.56;42.36;95763.56;5000504;28;20486;-61
2023/10/06 07:32:43;;;;;;;20.90;7.20;;;27.10;67.40;;;27.63;41.40;95761.59;5003033;28;20464;-61
2023/10/06 07:35:12;;;;;;;30.63;7.27;;;27.20;65.10;;;27.64;41.70;95757.84;4999722;28;20509;-62
2023/10/06 07:37:42;;;;;;;15.63;6.93;;;27.20;66.20;;;27.66;41.54;95763.03;4996213;28;20867;-62
2023/10/06 07:40:15;;;;;;;29.30;7.00;;;27.30;65.80;;;27.71;41.31;95760.47;4999266;28;20461;-61
2023/10/06 07:42:43;;;;;;;13.80;5.97;;;27.30;65.40;;;27.75;41.36;95756.28;5001311;28;20453;-61
2023/10/06 07:45:11;;;;;;;12.60;6.13;;;27.40;64.80;;;27.72;38.40;95751.31;4992611;28;20606;-61
2023/10/06 07:47:39;;;;;;;12.23;6.10;;;27.30;60.10;;;27.61;41.14;95755.59;4997083;28;20544;-61
2023/10/06 07:50:09;;;;;;;10.17;7.23;;;27.30;63.80;;;27.49;41.77;95752.81;5000211;28;20493;-61
2023/10/06 07:52:36;;;;;;;16.20;6.13;;;27.20;63.60;;;27.39;40.20;95747.13;5004869;28;20961;-62
2023/10/06 07:55:05;;;;;;;12.90;6.83;;;27.00;62.40;;;27.22;41.35;95751.41;4999374;28;20904;-60
2023/10/06 07:57:36;;;;;;;11.63;6.43;;;26.80;63.20;;;26.99;40.78;95742.91;5001965;28;20484;-62
2023/10/06 08:00:06;;;;;;;15.50;6.33;;;26.70;63.10;;;26.86;41.48;95756.50;5000537;28;20441;-60
2023/10/06 08:02:33;;;;;;;14.33;6.60;;;26.50;63.40;;;26.74;41.30;95756.41;5002169;28;20492;-62
2023/10/06 08:05:01;;;;;;;9.27;5.73;;;26.30;64.00;;;26.62;41.78;95750.84;5000349;28;20450;-59
2023/10/06 08:07:28;;;;;;;10.10;6.57;;;26.20;63.70;;;26.53;41.67;95754.84;5001770;28;20858;-61
2023/10/06 08:09:59;;;;;;;12.67;6.20;;;26.10;63.70;;;26.46;41.60;95759.47;4999956;28;20493;-60
2023/10/06 08:12:27;;;;;;;9.33;6.33;;;26.00;63.80;;;26.41;42.00;95752.03;5001958;28;20571;-63
2023/10/06 08:14:55;;;;;;;13.33;7.00;;;25.90;64.20;;;26.38;41.76;95757.03;5000238;28;20490;-61
2023/10/06 08:17:23;;;;;;;17.03;6.63;;;25.90;64.20;;;26.35;41.88;95754.78;5002065;28;20539;-59
2023/10/06 08:19:49;;;;;;;14.40;7.10;;;25.90;64.20;;;26.30;41.84;95771.59;5000058;28;20461;-61
2023/10/06 08:22:16;;;;;;;9.77;5.73;;;25.90;64.10;;;26.24;41.65;95767.06;5002219;28;20469;-59
2023/10/06 08:24:44;;;;;;;12.73;6.77;;;25.80;64.00;;;26.23;41.73;95768.13;4999783;28;20818;-60
2023/10/06 08:27:11;;;;;;;17.10;7.00;;;25.70;63.90;;;26.22;41.28;95770.00;5002436;28;20497;-60
2023/10/06 08:29:40;;;;;;;12.93;7.30;;;25.70;63.20;;;26.19;40.89;95764.22;4999179;28;21025;-60
2023/10/06 08:32:09;;;;;;;14.10;6.40;;;25.70;63.30;;;26.20;41.65;95772.09;5002452;28;20469;-60
2023/10/06 08:34:39;;;;;;;9.10;6.67;;;25.70;63.80;;;26.22;41.51;95764.59;4999659;28;20507;-61
2023/10/06 08:37:11;;;;;;;10.07;6.53;;;25.70;63.40;;;26.22;41.41;95761.09;5002312;28;20473;-59
2023/10/06 08:39:42;;;;;;;21.80;6.50;;;25.70;63.50;;;26.19;41.65;95765.03;5000097;28;20923;-58
2023/10/06 08:42:11;;;;;;;21.83;6.70;;;25.70;63.50;;;26.16;41.75;95760.06;5001188;28;20461;-60
2023/10/06 08:44:39;;;;;;;16.97;6.80;;;25.70;63.80;;;26.18;41.62;95754.44;4999047;28;20527;-60
2023/10/06 08:47:10;;;;;;;7.37;6.60;;;25.60;63.70;;;26.21;41.43;95757.56;5000409;28;20481;-60
2023/10/06 08:49:39;;;;;;;12.63;7.40;;;25.70;63.80;;;26.25;41.49;95752.56;5000218;28;20512;-59
2023/10/06 08:52:08;;;;;;;11.77;6.20;;;25.70;63.50;;;26.23;41.41;95760.88;5000982;28;20596;-61
2023/10/06 08:54:36;;;;;;;17.80;7.67;;;25.70;63.20;;;26.18;41.50;95757.16;5000088;28;20488;-62
2023/10/06 08:57:04;;;;;;;11.73;6.40;;;25.70;63.10;;;26.16;41.42;95753.84;5000778;28;20505;-60
2023/10/06 08:59:32;;;;;;;18.63;5.97;;;25.70;63.00;;;26.08;41.20;95747.66;5000748;28;20480;-61
2023/10/06 09:02:01;;;;;;;19.00;6.67;;;25.60;62.90;;;26.04;41.42;95746.47;5001071;28;20477;-60
2023/10/06 09:04:35;;;;;;;14.40;6.90;;;25.60;63.00;;;25.99;41.20;95746.25;5000252;28;20539;-61
2023/10/06 09:07:13;;;;;;;14.90;6.93;;;25.50;62.80;;;25.94;41.16;95743.34;5001606;28;20543;-59
2023/10/06 09:09:42;;;;;;;23.10;6.90;;;25.50;62.60;;;25.86;41.61;95744.44;4998740;28;20489;-60
2023/10/06 09:12:10;;;;;;;10.10;6.67;;;25.40;63.10;;;25.77;41.51;95737.63;5001932;28;20543;-61
2023/10/06 09:14:54;;;;;;;8.70;5.23;;;25.30;62.80;;;25.63;41.51;95739.53;4999083;28;20490;-61
2023/10/06 09:17:36;;;;;;;11.50;6.47;;;25.20;63.00;;;25.53;41.77;95737.31;4999607;28;20469;-60
2023/10/06 09:20:07;;;;;;;14.10;7.23;;;25.10;63.20;;;25.46;41.97;95738.38;4998581;28;20458;-61
2023/10/06 09:22:45;;;;;;;17.43;6.23;;;25.00;63.20;;;25.41;41.78;95745.22;5001125;28;20473;-61
2023/10/06 09:25:13;;;;;;;9.80;5.73;;;24.90;63.30;;;25.36;41.90;95739.63;5000516;28;20520;-59
2023/10/06 09:27:41;;;;;;;14.33;7.03;;;24.90;63.50;;;25.35;42.31;95743.34;5000544;28;20455;-62
2023/10/06 09:30:11;;;;;;;9.93;6.60;;;24.90;63.60;;;25.26;41.53;95744.59;5000170;28;20496;-62
2023/10/06 09:32:39;;;;;;;11.80;6.77;;;24.80;63.40;;;25.16;41.79;95744.19;4999390;28;20548;-61
2023/10/06 09:35:25;;;;;;;11.00;7.07;;;24.70;63.00;;;25.09;42.05;95748.78;5000171;28;20478;-59
2023/10/06 09:37:54;;;;;;;8.07;5.70;;;24.60;63.30;;;25.09;41.97;95740.69;4998846;28;20468;-62
2023/10/06 09:40:22;;;;;;;11.40;6.80;;;24.60;63.50;;;25.11;41.97;95742.13;5000995;28;20453;-61
2023/10/06 09:42:50;;;;;;;15.63;6.83;;;24.60;63.10;;;25.11;41.26;95741.31;4998608;28;20458;-59
2023/10/06 09:45:21;;;;;;;14.40;6.50;;;24.60;62.50;;;25.04;41.44;95739.44;5001314;28;20449;-61
2023/10/06 09:47:51;;;;;;;15.13;7.20;;;24.50;62.60;;;25.03;41.51;95736.97;4998718;28;20481;-60
2023/10/06 09:50:22;;;;;;;11.30;6.30;;;24.50;62.60;;;25.01;41.63;95739.88;5000658;28;20489;-60
2023/10/06 09:52:50;;;;;;;13.03;6.70;;;24.50;62.50;;;25.06;41.79;95739.25;4999460;28;20450;-60
2023/10/06 09:55:19;;;;;;;14.67;6.30;;;24.50;62.60;;;25.10;41.22;95735.09;5000176;28;20539;-60
2023/10/06 09:57:48;;;;;;;16.30;6.57;;;24.60;62.20;;;25.15;41.32;95739.84;4999565;28;20552;-59
2023/10/06 10:00:19;;;;;;;23.07;6.60;;;24.60;62.00;;;25.22;41.07;95737.97;5000092;28;20539;-60
2023/10/06 10:02:48;;;;;;;8.93;6.20;;;24.70;62.00;;;25.29;40.72;95736.13;5000029;28;20911;-62
2023/10/06 10:05:19;;;;;;;9.20;5.60;;;24.70;61.90;;;25.33;40.40;95729.28;4999139;28;20499;-61
2023/10/06 10:07:48;;;;;;;18.40;5.93;;;24.80;60.50;;;25.26;40.34;95725.75;5000617;28;20532;-62
2023/10/06 10:10:15;;;;;;;11.07;5.67;;;24.80;60.20;;;25.21;39.72;95725.56;4999464;28;21028;-61
2023/10/06 10:12:58;;;;;;;9.20;6.00;;;24.70;59.50;;;25.18;39.21;95725.97;5000079;28;21040;-61
2023/10/06 10:15:37;;;;;;;10.63;5.30;;;24.70;59.60;;;25.06;39.56;95729.28;4998480;28;20666;-60
2023/10/06 10:18:08;;;;;;;7.50;5.37;;;24.60;58.60;;;24.97;39.73;95722.50;4999178;28;20441;-59
2023/10/06 10:20:36;;;;;;;13.50;5.10;;;24.50;59.10;;;24.92;39.86;95727.66;5005611;28;20484;-61
2023/10/06 10:23:06;;;;;;;8.53;5.80;;;24.50;59.00;;;24.84;39.83;95715.25;5001356;28;20484;-59
2023/10/06 10:25:36;;;;;;;12.00;6.13;;;24.40;59.00;;;24.76;38.97;95712.78;5003434;28;21029;-61
2023/10/06 10:28:19;;;;;;;16.37;7.87;;;24.30;58.10;;;24.67;38.86;95704.09;4986634;28;20556;-61